Time;durP1;ratioP1;P1;durP2;ratioP2;P2;SDS_P1;SDS_P2;PMS_P1;PMS_P2;Temp;Humidity;BMP_temperature;BMP_pressure;BME280_temperature;BME280_humidity;BME280_pressure;Samples;Min_cycle;Max_cycle;Signal;HPM_P1;HPM_P2
2021/06/10 00:01:24;;;;;;;7.78;5.13;;;;;;;13.26;61.98;99744.56;527748;1089;116205;-61
2021/06/10 00:11:30;;;;;;;7.17;4.80;;;;;;;13.14;62.44;99748.92;530633;1090;116728;-57
2021/06/10 00:21:36;;;;;;;6.37;4.03;;;;;;;13.03;62.91;99750.54;531107;1088;117360;-60
2021/06/10 00:31:42;;;;;;;8.00;4.93;;;;;;;12.94;62.99;99745.95;532591;1089;116064;-61
2021/06/10 00:41:48;;;;;;;5.93;4.90;;;;;;;12.85;63.21;99741.34;529945;1088;116355;-60
2021/06/10 00:51:54;;;;;;;5.20;4.70;;;;;;;12.74;63.76;99740.30;525832;1089;116131;-60
2021/06/10 01:02:00;;;;;;;6.03;5.27;;;;;;;12.62;64.24;99749.07;515096;1089;116013;-60
2021/06/10 01:12:12;;;;;;;6.20;4.67;;;;;;;12.46;64.47;99747.49;524069;1088;116642;-60
2021/06/10 01:22:28;;;;;;;6.60;5.00;;;;;;;12.27;64.31;99737.39;532193;1089;118369;-60
2021/06/10 01:32:36;;;;;;;5.47;4.97;;;;;;;12.09;65.06;99733.41;529417;1090;116476;-60
2021/06/10 01:42:44;;;;;;;6.17;5.57;;;;;;;11.96;65.47;99738.63;522079;1088;116936;-61
2021/06/10 01:52:51;;;;;;;6.45;4.88;;;;;;;11.75;65.29;99741.74;518347;1090;116047;-62
2021/06/10 02:02:57;;;;;;;9.40;5.80;;;;;;;11.60;66.19;99736.56;514673;1088;115901;-60
2021/06/10 02:13:04;;;;;;;7.33;5.80;;;;;;;11.47;65.99;99747.03;528980;1089;116392;-61
2021/06/10 02:23:10;;;;;;;7.07;6.37;;;;;;;11.43;66.31;99752.63;532313;1089;115784;-61
2021/06/10 02:33:17;;;;;;;7.60;5.67;;;;;;;11.49;67.04;99755.69;528221;1089;116864;-61
2021/06/10 02:43:24;;;;;;;6.47;5.87;;;;;;;11.65;66.86;99752.05;532275;1090;116243;-62
2021/06/10 02:53:33;;;;;;;6.93;5.30;;;;;;;12.82;66.55;99747.66;531613;1089;117096;-56
2021/06/10 03:03:41;;;;;;;6.48;5.98;;;;;;;15.98;63.25;99742.02;532184;1088;117730;-62
2021/06/10 03:13:50;;;;;;;9.40;6.47;;;;;;;18.60;57.44;99741.77;531029;1088;116896;-61
2021/06/10 03:23:56;;;;;;;10.75;5.05;;;;;;;19.40;54.68;99747.47;531027;1088;116270;-62
2021/06/10 03:34:03;;;;;;;13.33;5.63;;;;;;;19.01;53.02;99752.08;517218;1089;116447;-60
2021/06/10 03:44:10;;;;;;;9.40;5.43;;;;;;;17.49;53.77;99774.94;524563;1089;116621;-62
2021/06/10 03:54:18;;;;;;;37.67;9.23;;;;;;;20.51;54.90;99779.95;523296;1088;116071;-62
2021/06/10 04:04:25;;;;;;;10.43;6.00;;;;;;;25.64;47.56;99767.66;520172;1089;116464;-62
2021/06/10 04:14:32;;;;;;;78.20;13.20;;;;;;;28.53;41.85;99778.57;525194;1089;116278;-60
2021/06/10 04:24:38;;;;;;;8.50;6.40;;;;;;;33.67;35.52;99765.28;527214;1088;116295;-61
2021/06/10 04:34:44;;;;;;;7.67;6.83;;;;;;;35.80;30.24;99778.70;531998;1089;116361;-62
2021/06/10 04:44:48;;;;;;;;;;;;;;;37.78;26.80;99764.58;519767;1089;116693;-62
2021/06/10 04:54:54;;;;;;;10.43;5.57;;;;;;;39.66;24.58;99760.64;529900;1090;102790;-62
2021/06/10 05:05:00;;;;;;;9.25;5.60;;;;;;;39.34;23.07;99756.49;523060;1090;117007;-62
2021/06/10 05:15:08;;;;;;;9.57;4.97;;;;;;;41.94;20.45;99742.88;530443;1090;116999;-62
2021/06/10 05:25:14;;;;;;;3.10;2.90;;;;;;;44.76;18.86;99728.91;526931;1089;117027;-63
2021/06/10 05:35:20;;;;;;;6.73;3.20;;;;;;;46.37;16.40;99723.34;532499;1088;116370;-63
2021/06/10 05:45:27;;;;;;;3.98;2.50;;;;;;;46.95;15.21;99733.05;531578;1089;116947;-63
2021/06/10 05:55:33;;;;;;;5.20;2.38;;;;;;;46.93;14.17;99729.78;531963;1088;117238;-63
2021/06/10 06:05:39;;;;;;;7.23;2.15;;;;;;;46.90;14.25;99736.83;528517;1090;116698;-62
2021/06/10 06:15:45;;;;;;;3.30;2.20;;;;;;;48.82;13.42;99736.66;532458;1089;116271;-62
2021/06/10 06:25:51;;;;;;;1.95;1.85;;;;;;;48.76;11.88;99732.50;531124;1090;116053;-59
2021/06/10 06:35:57;;;;;;;5.30;2.58;;;;;;;48.91;11.86;99736.53;530295;1089;117945;-61
2021/06/10 06:46:06;;;;;;;8.23;2.83;;;;;;;48.65;11.91;99744.14;532094;1089;116007;-61
2021/06/10 06:56:12;;;;;;;5.10;3.18;;;;;;;49.91;11.41;99748.67;531241;1089;116674;-60
2021/06/10 07:06:21;;;;;;;4.60;3.45;;;;;;;50.88;10.65;99737.98;530364;1088;118302;-60
2021/06/10 07:16:27;;;;;;;5.30;3.67;;;;;;;48.21;11.10;99730.91;532382;1089;115711;-60
2021/06/10 07:26:33;;;;;;;6.05;2.93;;;;;;;48.20;10.91;99742.39;531533;1088;116847;-62
2021/06/10 07:36:39;;;;;;;6.07;2.83;;;;;;;45.97;12.25;99749.52;532571;1090;117453;-60
2021/06/10 07:46:46;;;;;;;6.65;2.60;;;;;;;42.24;13.37;99749.73;532435;1089;116987;-58
2021/06/10 07:56:53;;;;;;;6.85;2.23;;;;;;;35.80;17.61;99759.58;531203;1089;116122;-59
2021/06/10 08:06:59;;;;;;;7.70;3.25;;;;;;;31.72;21.32;99762.68;532267;1088;116498;-58
2021/06/10 08:17:05;;;;;;;2.70;2.05;;;;;;;30.11;23.43;99775.58;532247;1088;116132;-58
2021/06/10 08:27:11;;;;;;;2.07;1.93;;;;;;;27.98;26.04;99763.48;527485;1089;115958;-58
2021/06/10 08:37:17;;;;;;;2.35;2.20;;;;;;;27.05;27.37;99767.72;531267;1089;117501;-58
2021/06/10 08:47:25;;;;;;;4.07;3.50;;;;;;;26.57;28.91;99758.59;525216;1089;116648;-58
2021/06/10 08:57:31;;;;;;;5.37;1.87;;;;;;;26.37;29.42;99771.95;517599;1090;116216;-59
2021/06/10 09:07:38;;;;;;;4.07;2.43;;;;;;;26.76;29.14;99761.59;531360;1089;117636;-59
2021/06/10 09:17:44;;;;;;;5.25;2.30;;;;;;;26.67;29.54;99760.95;518266;1089;116183;-58
2021/06/10 09:27:55;;;;;;;4.47;2.20;;;;;;;26.77;29.04;99759.72;532230;1089;116818;-58
2021/06/10 09:38:02;;;;;;;2.93;2.20;;;;;;;26.51;29.49;99764.80;531278;1090;116477;-59
2021/06/10 09:48:09;;;;;;;3.57;2.37;;;;;;;27.52;28.40;99757.04;526055;1089;116065;-58
2021/06/10 09:58:27;;;;;;;3.90;2.30;;;;;;;25.92;30.19;99757.97;528134;1089;116303;-61
2021/06/10 10:08:32;;;;;;;;;;;;;;;26.01;29.85;99746.03;531529;1089;115806;-59
2021/06/10 10:18:39;;;;;;;4.27;1.70;;;;;;;26.35;28.79;99741.73;528075;1089;102626;-59
2021/06/10 10:28:46;;;;;;;2.68;2.00;;;;;;;26.12;28.01;99729.34;518193;1088;117375;-62
2021/06/10 10:38:57;;;;;;;;;;;;;;;26.26;27.69;99729.45;517362;1089;116207;-71
2021/06/10 10:49:22;;;;;;;6.70;2.67;;;;;;;26.06;28.86;99722.05;518564;1089;159648;-70
2021/06/10 10:59:41;;;;;;;8.23;2.33;;;;;;;25.87;30.44;99728.96;531989;1088;115800;-66
2021/06/10 11:09:47;;;;;;;4.17;1.80;;;;;;;25.82;29.87;99720.66;532490;1090;117078;-63
2021/06/10 11:19:58;;;;;;;4.83;2.27;;;;;;;25.39;30.84;99716.13;532606;1090;116333;-63
2021/06/10 11:30:17;;;;;;;2.50;2.30;;;;;;;25.95;31.02;99698.39;515924;1088;116059;-58
2021/06/10 11:40:23;;;;;;;15.00;3.33;;;;;;;25.33;31.53;99699.76;517934;1088;115832;-58
2021/06/10 11:50:33;;;;;;;4.50;2.10;;;;;;;25.18;31.88;99682.89;516726;1090;116065;-57
2021/06/10 12:00:42;;;;;;;11.75;3.50;;;;;;;25.22;31.67;99664.50;532233;1088;115865;-59
2021/06/10 12:10:56;;;;;;;2.80;1.70;;;;;;;25.21;31.52;99646.72;532621;1089;116351;-59
2021/06/10 12:21:04;;;;;;;3.13;1.83;;;;;;;25.15;31.15;99642.95;531321;1090;116551;-59
2021/06/10 12:31:14;;;;;;;1.87;1.53;;;;;;;25.38;30.66;99640.06;522974;1088;116496;-58
2021/06/10 12:41:24;;;;;;;4.60;1.90;;;;;;;24.93;31.73;99637.58;532307;1089;116215;-58
2021/06/10 12:51:32;;;;;;;2.47;1.37;;;;;;;24.65;31.21;99622.20;525249;1090;116021;-59
2021/06/10 13:01:58;;;;;;;1.40;1.30;;;;;;;24.71;31.20;99608.03;525351;1088;117074;-58
2021/06/10 13:12:21;;;;;;;1.98;1.55;;;;;;;24.17;31.24;99601.20;520139;1089;116507;-59
2021/06/10 13:22:28;;;;;;;4.20;2.17;;;;;;;24.83;30.79;99594.95;532328;1088;116391;-57
2021/06/10 13:32:35;;;;;;;1.47;1.37;;;;;;;24.34;31.13;99593.77;517447;1089;116488;-57
2021/06/10 13:42:41;;;;;;;3.40;1.53;;;;;;;23.93;31.62;99593.27;530143;1089;115844;-58
2021/06/10 13:52:47;;;;;;;2.70;1.70;;;;;;;23.79;31.29;99578.84;524071;1087;115613;-59
2021/06/10 14:02:53;;;;;;;4.20;1.40;;;;;;;23.84;31.49;99577.47;526872;1089;117037;-58
2021/06/10 14:13:00;;;;;;;5.28;1.93;;;;;;;24.12;30.65;99572.27;514609;1089;115868;-58
2021/06/10 14:23:07;;;;;;;4.13;1.47;;;;;;;24.09;30.54;99558.42;525170;1088;115862;-59
2021/06/10 14:33:13;;;;;;;2.30;0.70;;;;;;;24.14;30.19;99553.31;525319;1089;116323;-58
2021/06/10 14:43:19;;;;;;;2.30;1.00;;;;;;;24.17;29.53;99551.09;531954;1090;116340;-58
2021/06/10 14:53:24;;;;;;;3.23;1.20;;;;;;;24.04;29.27;99538.34;530820;1088;116091;-59
2021/06/10 15:03:30;;;;;;;4.03;1.90;;;;;;;23.90;29.06;99534.66;532300;1089;116471;-58
2021/06/10 15:13:36;;;;;;;1.03;0.97;;;;;;;24.07;29.18;99539.83;532200;1090;116139;-59
2021/06/10 15:23:42;;;;;;;3.27;1.00;;;;;;;23.91;28.76;99544.36;516246;1089;116438;-58
2021/06/10 15:33:49;;;;;;;3.17;1.90;;;;;;;23.87;29.00;99537.69;518674;1088;116068;-59
2021/06/10 15:43:55;;;;;;;3.67;0.80;;;;;;;23.72;27.92;99535.05;527447;1089;115847;-58
2021/06/10 15:54:01;;;;;;;2.87;0.87;;;;;;;23.54;29.99;99527.36;517867;1088;115957;-59
2021/06/10 16:04:07;;;;;;;2.90;1.63;;;;;;;23.31;30.68;99530.95;515389;1089;116234;-60
2021/06/10 16:14:13;;;;;;;4.47;1.10;;;;;;;23.05;31.52;99526.83;514657;1088;116529;-56
2021/06/10 16:24:19;;;;;;;4.67;1.07;;;;;;;23.21;31.26;99519.67;515304;1090;116919;-58
2021/06/10 16:34:25;;;;;;;1.80;1.40;;;;;;;23.32;31.47;99500.50;515203;1089;116086;-58
2021/06/10 16:44:31;;;;;;;2.43;1.00;;;;;;;23.49;31.54;99508.34;525086;1089;116300;-57
2021/06/10 16:54:38;;;;;;;2.17;1.07;;;;;;;23.30;31.36;99509.73;519074;1090;116790;-61
2021/06/10 17:04:44;;;;;;;3.00;1.00;;;;;;;23.04;31.95;99517.13;505302;1089;10001145;-58
2021/06/10 17:14:50;;;;;;;3.68;1.20;;;;;;;22.81;31.95;99520.68;516329;1089;117693;-59
2021/06/10 17:24:57;;;;;;;4.53;1.67;;;;;;;22.74;32.44;99522.44;515802;1088;116671;-59
2021/06/10 17:35:03;;;;;;;2.90;1.30;;;;;;;22.46;32.81;99536.30;532429;1088;116168;-58
2021/06/10 17:45:11;;;;;;;7.10;2.13;;;;;;;22.22;33.45;99537.27;531576;1089;116150;-61
2021/06/10 17:55:17;;;;;;;7.30;2.17;;;;;;;23.22;33.08;99527.50;531456;1088;116575;-63
2021/06/10 18:05:24;;;;;;;4.60;1.50;;;;;;;22.29;33.97;99530.22;517656;1089;116363;-64
2021/06/10 18:15:31;;;;;;;4.20;1.70;;;;;;;21.79;34.96;99533.16;531892;1089;116070;-63
2021/06/10 18:25:37;;;;;;;3.70;3.03;;;;;;;21.44;35.72;99534.39;527520;1089;116713;-63
2021/06/10 18:35:45;;;;;;;4.97;2.30;;;;;;;21.06;36.43;99542.95;519294;1088;116791;-63
2021/06/10 18:45:51;;;;;;;5.87;2.97;;;;;;;20.68;37.09;99552.27;532215;1088;116101;-64
2021/06/10 18:55:57;;;;;;;5.50;2.70;;;;;;;20.32;37.94;99562.39;531773;1089;116893;-64
2021/06/10 19:06:04;;;;;;;18.43;4.17;;;;;;;19.78;39.45;99561.64;521206;1088;116424;-63
2021/06/10 19:16:11;;;;;;;8.58;2.93;;;;;;;19.29;41.86;99567.53;530935;1088;116020;-64
2021/06/10 19:26:17;;;;;;;14.62;4.70;;;;;;;18.81;43.56;99574.92;513195;1090;10001299;-64
2021/06/10 19:36:23;;;;;;;8.33;3.13;;;;;;;18.34;45.23;99580.27;523030;1089;117269;-62
2021/06/10 19:46:29;;;;;;;17.97;4.00;;;;;;;17.89;46.27;99578.37;529938;1089;116078;-65
2021/06/10 19:56:35;;;;;;;9.73;4.27;;;;;;;17.54;47.73;99578.08;522435;1089;116707;-63
2021/06/10 20:06:43;;;;;;;23.57;4.43;;;;;;;17.16;48.69;99590.45;526132;1089;116200;-64
2021/06/10 20:16:49;;;;;;;20.60;4.87;;;;;;;16.78;49.71;99577.02;532512;1089;116387;-63
2021/06/10 20:26:59;;;;;;;6.27;3.20;;;;;;;16.52;50.80;99580.22;531351;1089;116139;-63
2021/06/10 20:37:05;;;;;;;10.88;3.98;;;;;;;16.20;51.63;99583.91;532053;1088;116544;-64
2021/06/10 20:47:11;;;;;;;17.70;5.33;;;;;;;15.94;52.59;99576.44;521685;1089;10000995;-64
2021/06/10 20:57:18;;;;;;;17.17;5.80;;;;;;;15.69;53.48;99574.06;517693;1088;117195;-64
2021/06/10 21:07:24;;;;;;;14.30;4.50;;;;;;;15.47;54.99;99568.93;522866;1089;116501;-64
2021/06/10 21:17:30;;;;;;;12.97;6.40;;;;;;;15.23;55.35;99568.22;525530;1090;116709;-58
2021/06/10 21:27:36;;;;;;;11.40;5.40;;;;;;;14.99;56.16;99565.84;518453;1088;157831;-62
2021/06/10 21:37:42;;;;;;;10.70;4.87;;;;;;;14.78;57.15;99571.11;521008;1089;116139;-62
2021/06/10 21:47:48;;;;;;;8.73;4.90;;;;;;;14.54;57.30;99572.09;526281;1090;116810;-62
2021/06/10 21:57:55;;;;;;;9.20;5.07;;;;;;;14.33;58.03;99578.16;516543;1089;173910;-62
2021/06/10 22:08:05;;;;;;;9.40;4.90;;;;;;;14.09;58.60;99581.80;515168;1090;116664;-61
2021/06/10 22:18:12;;;;;;;7.83;4.70;;;;;;;13.95;59.31;99582.88;514144;1089;116268;-62
2021/06/10 22:28:17;;;;;;;12.43;5.60;;;;;;;13.78;59.77;99584.20;526019;1089;116369;-62
2021/06/10 22:38:24;;;;;;;19.50;6.23;;;;;;;13.61;60.17;99592.56;523113;1089;117546;-61
2021/06/10 22:48:31;;;;;;;10.37;5.63;;;;;;;13.47;60.74;99588.36;515006;1089;117051;-62
2021/06/10 22:58:38;;;;;;;9.00;4.90;;;;;;;13.29;61.32;99586.98;520623;1088;117696;-62
2021/06/10 23:08:45;;;;;;;16.13;7.53;;;;;;;13.13;61.91;99576.74;522702;1089;116588;-63
2021/06/10 23:18:51;;;;;;;12.13;6.87;;;;;;;13.03;62.12;99581.02;522360;1090;116710;-62
2021/06/10 23:28:57;;;;;;;15.30;6.00;;;;;;;12.89;62.61;99574.98;528373;1089;116484;-62
2021/06/10 23:39:03;;;;;;;6.27;4.90;;;;;;;12.84;63.18;99576.28;531640;1088;116409;-61
2021/06/10 23:49:09;;;;;;;11.53;6.37;;;;;;;12.74;63.22;99571.69;532115;1088;116221;-62
2021/06/10 23:59:16;;;;;;;11.80;6.43;;;;;;;12.65;63.75;99564.45;531305;1090;116491;-61
